Alden, Alabama
Current Conditions -  °F | °C
As of 4:53 AM on Thursday 27 Nov 2014 (Local Time) from KBHM Reporting Station
Scattered Clouds Scattered Clouds  
Wind Chill: 38°   Ceiling: Unl
Heat Index: 38°   Visibility: 10mi
Dew Point: 31°   Wind: 0mph
Humidity: 76%   Direction: NA
Pressure: 30.26"   Gusts: NA
Location:  33.652°N, 86.9784°W
Report Text: KBHM 271053Z 00000KT 10SM SCT034 03/M01 A3026 RMK AO2 SLP247 T00331006
Loading
Personal Weather Stations






























Interactive Weather Map New forecast layout! Learn more

10-Day Weather Forecast

Advertisements
Track Severe Weather on mobile